Time;durP1;ratioP1;P1;durP2;ratioP2;P2;SDS_P1;SDS_P2;PMS_P1;PMS_P2;Temp;Humidity;BMP_temperature;BMP_pressure;BME280_temperature;BME280_humidity;BME280_pressure;Samples;Min_cycle;Max_cycle;Signal;HPM_P1;HPM_P2
2023/06/03 00:02:25;;;;;;;13.45;5.50;;;;;;;16.27;100.00;100230.31;5567047;32;33583;-67
2023/06/03 00:05:32;;;;;;;;;;;;;;;16.20;100.00;100232.19;5566534;32;33724;-67
2023/06/03 00:08:36;;;;;;;9.88;5.30;;;;;;;16.20;100.00;100234.88;5566502;32;34252;-67
2023/06/03 00:11:45;;;;;;;9.10;5.20;;;;;;;16.08;100.00;100240.00;5566737;32;34527;-67
2023/06/03 00:14:52;;;;;;;10.57;5.60;;;;;;;16.00;100.00;100247.44;5566632;32;34610;-67
2023/06/03 00:18:01;;;;;;;11.68;5.50;;;;;;;15.99;100.00;100249.28;5566620;32;34568;-67
2023/06/03 00:21:09;;;;;;;15.02;5.53;;;;;;;15.88;100.00;100255.25;5566611;32;34631;-67
2023/06/03 00:24:22;;;;;;;10.68;4.72;;;;;;;15.82;100.00;100256.06;5566630;32;33714;-67
2023/06/03 00:27:27;;;;;;;10.48;5.18;;;;;;;15.80;100.00;100262.66;5566653;32;34032;-67
2023/06/03 00:30:33;;;;;;;9.57;5.35;;;;;;;16.01;100.00;100259.78;5565607;32;33761;-66
2023/06/03 00:33:39;;;;;;;8.55;4.70;;;;;;;15.97;100.00;100259.38;5566469;32;34513;-67
2023/06/03 00:36:46;;;;;;;10.93;5.25;;;;;;;15.83;100.00;100256.91;5566339;32;33836;-67
2023/06/03 00:39:54;;;;;;;15.65;5.18;;;;;;;15.96;100.00;100262.25;5566284;32;34226;-67
2023/06/03 00:43:03;;;;;;;9.52;4.90;;;;;;;16.18;100.00;100263.69;5566288;32;34048;-67
2023/06/03 00:46:10;;;;;;;12.90;5.55;;;;;;;16.00;100.00;100272.34;5566038;32;34041;-67
2023/06/03 00:49:18;;;;;;;20.15;5.45;;;;;;;15.85;100.00;100269.03;5565310;32;33615;-67
2023/06/03 00:52:28;;;;;;;8.95;4.75;;;;;;;15.67;100.00;100271.50;5566205;32;33562;-67
2023/06/03 00:55:34;;;;;;;15.15;5.45;;;;;;;15.55;100.00;100270.41;5566120;32;34311;-67
2023/06/03 00:58:40;;;;;;;15.93;5.62;;;;;;;15.46;100.00;100264.41;5566109;32;33817;-67
2023/06/03 01:01:47;;;;;;;14.65;5.68;;;;;;;15.39;100.00;100273.47;5565911;32;34586;-67
2023/06/03 01:04:57;;;;;;;10.77;5.05;;;;;;;15.35;100.00;100273.00;5565128;32;34663;-67
2023/06/03 01:08:21;;;;;;;10.35;4.93;;;;;;;15.35;100.00;100274.84;5565026;32;34500;-67
2023/06/03 01:12:10;;;;;;;11.25;4.62;;;;;;;15.26;100.00;100274.22;5564865;32;33979;-67
2023/06/03 01:15:20;;;;;;;;;;;;;;;15.16;100.00;100269.25;5566029;32;34177;-67
2023/06/03 01:18:25;;;;;;;12.75;5.32;;;;;;;15.07;100.00;100264.28;5567129;32;34867;-67
2023/06/03 01:21:38;;;;;;;16.00;5.53;;;;;;;15.00;100.00;100264.28;5568577;32;33542;-67
2023/06/03 01:24:53;;;;;;;13.60;4.85;;;;;;;15.11;100.00;100266.34;5568380;32;34129;-67
2023/06/03 01:28:03;;;;;;;11.23;5.00;;;;;;;15.01;100.00;100271.25;5568474;32;33970;-67
2023/06/03 01:31:10;;;;;;;12.48;4.82;;;;;;;14.92;100.00;100261.75;5567594;32;34752;-67
2023/06/03 01:34:18;;;;;;;9.25;5.40;;;;;;;14.90;100.00;100274.50;5568403;32;33842;-67
2023/06/03 01:37:26;;;;;;;10.88;4.95;;;;;;;14.80;100.00;100271.37;5567486;32;34922;-66
2023/06/03 01:40:34;;;;;;;14.57;5.22;;;;;;;14.75;100.00;100277.31;5568364;32;33478;-67
2023/06/03 01:43:39;;;;;;;12.10;5.45;;;;;;;14.75;100.00;100282.62;5567637;32;33930;-67
2023/06/03 01:46:49;;;;;;;9.45;5.00;;;;;;;14.66;100.00;100283.00;5568554;32;34451;-67
2023/06/03 01:49:55;;;;;;;14.07;5.35;;;;;;;14.56;100.00;100274.50;5567226;32;33837;-67
2023/06/03 01:53:07;;;;;;;12.10;5.40;;;;;;;14.53;100.00;100273.03;5567363;32;33942;-67
2023/06/03 01:56:13;;;;;;;11.50;5.70;;;;;;;14.52;100.00;100276.75;5568208;32;34203;-67
2023/06/03 01:59:23;;;;;;;17.02;5.40;;;;;;;14.39;100.00;100284.66;5568022;32;33913;-67
2023/06/03 02:02:31;;;;;;;;;;;;;;;14.35;100.00;100294.87;5568379;32;33869;-67
2023/06/03 02:05:41;;;;;;;17.55;5.32;;;;;;;14.38;100.00;100299.00;5579763;31;34802;-66
2023/06/03 02:08:47;;;;;;;16.65;5.50;;;;;;;14.32;100.00;100299.78;5568159;32;33600;-66
2023/06/03 02:11:58;;;;;;;17.33;5.25;;;;;;;14.32;100.00;100313.12;5568103;32;33535;-67
2023/06/03 02:15:07;;;;;;;12.90;5.57;;;;;;;14.22;100.00;100316.13;5568250;32;33813;-67
2023/06/03 02:18:17;;;;;;;9.63;4.90;;;;;;;14.53;100.00;100322.94;5568068;32;33930;-67
2023/06/03 02:21:25;;;;;;;10.80;5.03;;;;;;;14.68;100.00;100312.97;5567676;32;33978;-66
2023/06/03 02:24:38;;;;;;;10.80;4.73;;;;;;;14.85;100.00;100322.34;5567937;32;33835;-67
2023/06/03 02:27:47;;;;;;;10.63;4.97;;;;;;;14.91;100.00;100329.53;5567818;32;33915;-66
2023/06/03 02:30:56;;;;;;;9.98;4.72;;;;;;;14.88;100.00;100321.94;5566173;32;33582;-67
2023/06/03 02:34:04;;;;;;;10.43;4.70;;;;;;;14.84;100.00;100327.88;5567827;32;33932;-66
2023/06/03 02:37:15;;;;;;;10.88;4.90;;;;;;;14.75;100.00;100333.38;5567869;32;33893;-66
2023/06/03 02:40:22;;;;;;;7.43;4.62;;;;;;;14.69;100.00;100325.31;5567508;32;33893;-66
2023/06/03 02:43:31;;;;;;;16.60;5.22;;;;;;;14.66;100.00;100331.87;5567795;32;33856;-66
2023/06/03 02:46:39;;;;;;;8.95;5.18;;;;;;;14.48;100.00;100339.53;5566851;32;33939;-67
2023/06/03 02:49:46;;;;;;;12.82;5.05;;;;;;;14.22;100.00;100348.16;5567701;32;34449;-67
2023/06/03 02:52:52;;;;;;;9.15;5.20;;;;;;;14.06;100.00;100348.41;5567072;32;34079;-67
2023/06/03 02:55:59;;;;;;;11.05;4.60;;;;;;;13.91;100.00;100352.97;5567822;32;34556;-67
2023/06/03 02:59:07;;;;;;;11.30;4.68;;;;;;;13.86;100.00;100364.19;5567748;32;33564;-66
2023/06/03 03:02:20;;;;;;;13.40;5.03;;;;;;;13.80;100.00;100370.28;5567666;32;35005;-67
2023/06/03 03:05:27;;;;;;;10.23;5.00;;;;;;;13.79;100.00;100368.66;5567576;32;33811;-67
2023/06/03 03:08:37;;;;;;;14.02;4.68;;;;;;;13.78;100.00;100382.16;5567963;32;33712;-67
2023/06/03 03:11:43;;;;;;;10.65;4.72;;;;;;;13.78;100.00;100375.00;5567424;32;33884;-67
2023/06/03 03:14:50;;;;;;;8.75;4.80;;;;;;;13.86;100.00;100377.53;5567555;32;33762;-67
2023/06/03 03:17:56;;;;;;;8.05;4.75;;;;;;;13.90;100.00;100380.63;5567498;32;33676;-67
2023/06/03 03:21:06;;;;;;;13.38;5.10;;;;;;;13.88;100.00;100396.03;5567390;32;33845;-67
2023/06/03 03:24:11;;;;;;;10.52;5.05;;;;;;;13.83;100.00;100396.59;5567275;32;34085;-66
2023/06/03 03:27:20;;;;;;;10.02;4.68;;;;;;;13.75;100.00;100398.53;5566530;32;33828;-67
2023/06/03 03:30:26;;;;;;;12.37;4.62;;;;;;;13.68;100.00;100400.28;5567407;32;33866;-67
2023/06/03 03:33:33;;;;;;;11.23;4.90;;;;;;;13.62;100.00;100407.19;5566510;32;34052;-66
2023/06/03 03:36:41;;;;;;;9.15;4.87;;;;;;;13.61;100.00;100410.03;5567366;32;34532;-67
2023/06/03 03:39:49;;;;;;;15.77;5.18;;;;;;;13.64;100.00;100407.03;5567331;32;33668;-67
2023/06/03 03:42:57;;;;;;;12.10;4.97;;;;;;;13.67;100.00;100407.47;5567451;32;34573;-67
2023/06/03 03:46:09;;;;;;;13.93;5.28;;;;;;;13.75;100.00;100417.19;5567162;32;33830;-67
2023/06/03 03:49:26;;;;;;;12.15;5.10;;;;;;;13.84;100.00;100416.09;5567193;32;33974;-67
2023/06/03 03:52:34;;;;;;;11.07;4.72;;;;;;;14.25;100.00;100424.31;5567145;32;34302;-67
2023/06/03 03:55:45;;;;;;;14.63;5.15;;;;;;;14.18;100.00;100428.75;5567064;32;33935;-67
2023/06/03 03:58:55;;;;;;;9.48;4.75;;;;;;;14.22;100.00;100422.03;5566194;32;33770;-67
2023/06/03 04:02:01;;;;;;;12.18;4.90;;;;;;;14.42;100.00;100431.09;5566126;32;33838;-67
2023/06/03 04:05:15;;;;;;;9.75;5.30;;;;;;;14.44;100.00;100439.72;5566932;32;34116;-67
2023/06/03 04:08:35;;;;;;;11.65;5.05;;;;;;;14.56;100.00;100440.03;5567063;32;34058;-66
2023/06/03 04:11:44;;;;;;;7.62;4.18;;;;;;;14.63;100.00;100447.06;5566729;32;33855;-66
2023/06/03 04:14:53;;;;;;;12.20;4.82;;;;;;;14.73;100.00;100452.91;5566939;32;33511;-66
2023/06/03 04:18:04;;;;;;;9.13;4.43;;;;;;;14.72;100.00;100458.44;5566785;32;33919;-66
2023/06/03 04:21:19;;;;;;;9.20;4.30;;;;;;;14.69;100.00;100453.50;5566723;32;34702;-67
2023/06/03 04:24:27;;;;;;;11.40;4.80;;;;;;;14.77;100.00;100450.66;5566678;32;34538;-66
2023/06/03 04:27:34;;;;;;;8.60;4.30;;;;;;;14.77;100.00;100451.50;5566426;32;34035;-66
2023/06/03 04:30:42;;;;;;;10.63;4.43;;;;;;;14.94;100.00;100456.56;5566663;32;34368;-66
2023/06/03 04:33:49;;;;;;;9.27;4.62;;;;;;;15.01;100.00;100455.59;5565577;32;34790;-66
2023/06/03 04:36:55;;;;;;;10.35;4.53;;;;;;;15.08;100.00;100461.00;5566433;32;34612;-67
2023/06/03 04:40:04;;;;;;;7.93;4.97;;;;;;;15.20;100.00;100462.91;5566314;32;33495;-66
2023/06/03 04:43:14;;;;;;;12.77;4.62;;;;;;;15.21;100.00;100469.09;5566378;32;33570;-67
2023/06/03 04:46:21;;;;;;;10.38;4.80;;;;;;;15.22;100.00;100468.91;5566254;32;33758;-67
2023/06/03 04:49:31;;;;;;;11.10;4.90;;;;;;;15.29;100.00;100468.13;5566099;32;34539;-67
2023/06/03 04:52:38;;;;;;;10.63;5.40;;;;;;;15.37;99.91;100466.12;5566549;32;33811;-66
2023/06/03 04:55:46;;;;;;;12.43;4.60;;;;;;;15.35;99.35;100478.00;5568715;32;34032;-67
2023/06/03 04:58:56;;;;;;;13.20;4.87;;;;;;;15.39;99.87;100477.44;5568533;32;33969;-67
2023/06/03 05:02:04;;;;;;;10.80;5.07;;;;;;;15.47;100.00;100479.12;5568808;32;33496;-67
2023/06/03 05:05:12;;;;;;;15.10;5.10;;;;;;;15.57;100.00;100471.59;5568547;32;34719;-67
2023/06/03 05:08:21;;;;;;;10.30;4.90;;;;;;;15.74;97.15;100478.25;5568507;32;34489;-67
2023/06/03 05:11:29;;;;;;;7.97;4.40;;;;;;;15.75;93.24;100482.59;5568683;32;33616;-67
2023/06/03 05:14:40;;;;;;;9.55;4.78;;;;;;;15.90;93.51;100485.13;5568462;32;33808;-67
2023/06/03 05:17:49;;;;;;;6.30;4.50;;;;;;;16.03;91.13;100479.81;5568512;32;33791;-67
2023/06/03 05:20:57;;;;;;;10.30;4.55;;;;;;;16.11;89.29;100494.87;5568551;32;34595;-67
2023/06/03 05:24:06;;;;;;;8.88;4.55;;;;;;;16.26;86.83;100491.03;5568363;32;34005;-67
2023/06/03 05:27:12;;;;;;;12.40;4.97;;;;;;;16.33;85.36;100488.34;5568307;32;34413;-67
2023/06/03 05:30:20;;;;;;;11.18;4.10;;;;;;;16.25;85.87;100491.22;5568317;32;34370;-67
2023/06/03 05:33:31;;;;;;;9.60;4.25;;;;;;;16.20;87.51;100482.97;5567558;32;33703;-67
2023/06/03 05:36:41;;;;;;;7.95;4.25;;;;;;;16.33;83.57;100496.38;5568344;32;33599;-67
2023/06/03 05:39:52;;;;;;;11.10;3.92;;;;;;;16.47;83.83;100500.75;5568264;32;34461;-67
2023/06/03 05:43:00;;;;;;;6.85;3.72;;;;;;;16.65;82.49;100502.88;5568112;32;33801;-67
2023/06/03 05:46:07;;;;;;;7.87;3.97;;;;;;;16.64;79.55;100498.53;5568063;32;33756;-67
2023/06/03 05:49:14;;;;;;;8.27;4.00;;;;;;;16.68;78.54;100497.94;5568045;32;34012;-67
2023/06/03 05:52:22;;;;;;;9.40;3.65;;;;;;;16.64;79.90;100518.13;5568438;32;34639;-67
2023/06/03 05:55:30;;;;;;;10.88;4.00;;;;;;;16.65;79.66;100506.38;5568019;32;33934;-66
2023/06/03 05:58:43;;;;;;;12.80;3.58;;;;;;;16.73;79.25;100508.03;5568130;32;33638;-66
2023/06/03 06:01:49;;;;;;;9.00;3.80;;;;;;;16.70;82.23;100516.50;5567939;32;33765;-67
2023/06/03 06:04:56;;;;;;;10.75;3.72;;;;;;;16.78;78.87;100517.09;5565977;32;33888;-67
2023/06/03 06:08:03;;;;;;;7.43;3.75;;;;;;;16.91;78.32;100527.81;5568023;32;33882;-67
2023/06/03 06:11:09;;;;;;;6.37;3.78;;;;;;;17.00;79.14;100527.63;5567825;31;33635;-67
2023/06/03 06:14:16;;;;;;;9.15;4.20;;;;;;;17.06;77.89;100521.44;5567826;32;34300;-67
2023/06/03 06:17:23;;;;;;;11.80;4.60;;;;;;;17.10;77.97;100522.66;5567782;32;33906;-66
2023/06/03 06:20:31;;;;;;;9.50;4.12;;;;;;;17.01;78.15;100537.31;5567947;32;34034;-67
2023/06/03 06:23:44;;;;;;;9.95;4.30;;;;;;;17.09;75.91;100532.56;5567311;32;33612;-67
2023/06/03 06:26:51;;;;;;;;;;;;;;;16.98;78.12;100535.06;5567846;32;33805;-68
2023/06/03 06:29:57;;;;;;;8.63;4.10;;;;;;;17.31;76.79;100530.50;5567833;32;34315;-66
2023/06/03 06:33:04;;;;;;;10.35;4.37;;;;;;;17.38;77.92;100537.50;5567525;32;34058;-67
2023/06/03 06:36:28;;;;;;;8.98;4.22;;;;;;;17.52;76.88;100537.50;5567484;32;34050;-67
2023/06/03 06:39:34;;;;;;;15.43;4.68;;;;;;;17.73;76.19;100543.47;5567723;32;33959;-67
2023/06/03 06:42:44;;;;;;;10.88;5.40;;;;;;;17.16;78.37;100540.62;5567606;32;34661;-66
2023/06/03 06:45:55;;;;;;;9.90;4.65;;;;;;;17.31;78.30;100547.44;5581105;31;34421;-67
2023/06/03 06:49:04;;;;;;;8.65;4.62;;;;;;;17.74;77.04;100558.53;5586934;31;34881;-67
2023/06/03 06:52:12;;;;;;;9.80;4.45;;;;;;;18.51;72.25;100554.09;5587088;31;33816;-67
2023/06/03 06:55:39;;;;;;;9.38;4.25;;;;;;;18.98;69.99;100556.28;5587138;31;34730;-67
2023/06/03 06:58:46;;;;;;;11.77;4.40;;;;;;;19.00;70.08;100559.59;5567328;32;34021;-68
2023/06/03 07:01:51;;;;;;;10.32;4.22;;;;;;;19.59;64.59;100557.47;5567002;32;34156;-67
2023/06/03 07:04:57;;;;;;;10.05;4.18;;;;;;;20.04;64.46;100561.56;5570315;31;33700;-68
2023/06/03 07:08:05;;;;;;;8.93;4.43;;;;;;;20.50;61.19;100560.97;5582832;31;34847;-67
2023/06/03 07:11:11;;;;;;;9.13;4.40;;;;;;;19.73;61.99;100565.19;5586550;31;33750;-67
2023/06/03 07:14:21;;;;;;;11.57;4.18;;;;;;;19.11;65.47;100563.47;5586858;31;33598;-68
2023/06/03 07:17:26;;;;;;;11.50;4.60;;;;;;;19.02;65.84;100567.47;5586274;31;34002;-67
2023/06/03 07:20:36;;;;;;;10.45;4.35;;;;;;;18.65;67.13;100577.19;5586606;31;33430;-67
2023/06/03 07:23:47;;;;;;;12.02;5.43;;;;;;;18.84;67.74;100578.94;5586544;31;34433;-68
2023/06/03 07:26:54;;;;;;;11.45;5.12;;;;;;;19.30;67.02;100578.63;5586060;31;34532;-67
2023/06/03 07:30:01;;;;;;;9.23;4.68;;;;;;;19.30;67.55;100573.22;5586304;31;34014;-68
2023/06/03 07:33:22;;;;;;;8.50;4.65;;;;;;;19.35;69.36;100580.63;5586160;31;33732;-68
2023/06/03 07:36:29;;;;;;;7.35;4.40;;;;;;;19.35;69.12;100580.63;5585435;31;34044;-68
2023/06/03 07:39:37;;;;;;;10.10;4.05;;;;;;;19.65;67.61;100568.19;5585929;31;34006;-68
2023/06/03 07:42:49;;;;;;;7.47;3.33;;;;;;;20.47;63.06;100580.31;5586220;31;33929;-67
2023/06/03 07:45:57;;;;;;;10.07;3.78;;;;;;;20.12;61.26;100590.88;5585738;31;34567;-68
2023/06/03 07:49:14;;;;;;;7.90;3.85;;;;;;;18.55;68.56;100583.03;5571589;31;279843;-66
2023/06/03 07:52:21;;;;;;;8.40;3.85;;;;;;;19.72;64.75;100590.47;5578528;31;33787;-68
2023/06/03 07:55:39;;;;;;;7.43;3.50;;;;;;;19.98;61.51;100593.94;5574792;31;34566;-68
2023/06/03 07:58:47;;;;;;;7.18;3.33;;;;;;;21.14;58.08;100584.56;5585389;31;32579;-68
2023/06/03 08:01:58;;;;;;;7.82;3.30;;;;;;;22.12;52.30;100583.88;5585642;31;33753;-69
2023/06/03 08:05:05;;;;;;;8.75;3.70;;;;;;;22.34;51.48;100594.84;5585920;31;33777;-68
2023/06/03 08:08:11;;;;;;;12.75;4.03;;;;;;;21.22;54.46;100596.87;5584682;31;34157;-67
2023/06/03 08:11:19;;;;;;;;;;;;;;;20.83;54.44;100606.34;5585934;31;33675;-69
2023/06/03 08:14:26;;;;;;;11.32;3.28;;;;;;;20.78;53.96;100601.66;5585887;31;34622;-69
2023/06/03 08:17:43;;;;;;;8.25;3.25;;;;;;;20.60;53.96;100595.47;5581176;31;33807;-65
2023/06/03 08:20:49;;;;;;;7.22;3.47;;;;;;;20.49;54.92;100602.44;5581540;31;33264;-68
2023/06/03 08:23:57;;;;;;;7.40;3.25;;;;;;;21.75;52.55;100606.75;5582849;31;33889;-67
2023/06/03 08:27:05;;;;;;;8.23;3.37;;;;;;;23.05;47.35;100613.25;5576601;31;34512;-68
2023/06/03 08:30:14;;;;;;;8.07;3.22;;;;;;;22.30;49.15;100602.63;5578381;31;33770;-68
2023/06/03 08:33:20;;;;;;;6.82;3.60;;;;;;;24.24;44.17;100611.91;5577351;31;34067;-68
2023/06/03 08:36:26;;;;;;;6.18;3.45;;;;;;;23.17;45.79;100615.91;5581880;31;34198;-68
2023/06/03 08:39:31;;;;;;;6.30;2.70;;;;;;;22.55;47.34;100607.72;5578258;31;35005;-69
2023/06/03 08:42:43;;;;;;;7.03;2.87;;;;;;;25.27;42.78;100606.50;5581715;31;34741;-68
2023/06/03 08:46:01;;;;;;;7.07;2.65;;;;;;;25.29;40.99;100616.03;5581655;31;33591;-67
2023/06/03 08:49:11;;;;;;;8.63;3.20;;;;;;;22.49;45.90;100617.59;5578970;31;33226;-68
2023/06/03 08:52:23;;;;;;;8.45;3.03;;;;;;;20.81;49.36;100609.28;5574538;31;33205;-68
2023/06/03 08:55:32;;;;;;;6.30;3.10;;;;;;;20.95;49.43;100611.78;5572715;31;33894;-67
2023/06/03 08:58:45;;;;;;;7.70;2.87;;;;;;;22.03;46.77;100617.69;5578163;31;33829;-67
2023/06/03 09:01:56;;;;;;;6.87;2.78;;;;;;;22.86;44.09;100618.06;5580421;31;33836;-67
2023/06/03 09:05:03;;;;;;;8.98;2.35;;;;;;;24.18;42.44;100623.75;5584347;31;34180;-69
2023/06/03 09:08:12;;;;;;;5.10;2.80;;;;;;;24.24;41.41;100619.22;5569482;31;33774;-67
2023/06/03 09:11:18;;;;;;;10.27;2.87;;;;;;;25.12;38.89;100619.94;5572535;31;33859;-68
2023/06/03 09:14:25;;;;;;;6.25;2.72;;;;;;;25.98;37.95;100618.72;5570336;31;33781;-68
2023/06/03 09:17:32;;;;;;;5.50;2.78;;;;;;;25.03;38.68;100612.25;5577268;31;33822;-68
2023/06/03 09:20:41;;;;;;;5.32;2.60;;;;;;;24.27;40.29;100623.31;5584400;31;33772;-69
2023/06/03 09:23:51;;;;;;;5.10;2.50;;;;;;;24.90;38.94;100622.72;5572336;31;33985;-68
2023/06/03 09:26:59;;;;;;;3.05;2.33;;;;;;;24.27;39.82;100623.31;5582140;31;34338;-69
2023/06/03 09:30:07;;;;;;;6.18;2.40;;;;;;;24.98;38.72;100627.69;5577782;31;33480;-69
2023/06/03 09:33:16;;;;;;;7.45;2.55;;;;;;;25.53;36.91;100630.06;5574101;31;34074;-68
2023/06/03 09:36:23;;;;;;;5.78;2.80;;;;;;;26.06;36.22;100630.97;5584120;31;33763;-68
2023/06/03 09:39:32;;;;;;;7.57;2.70;;;;;;;25.64;37.29;100629.09;5585268;31;33757;-68
2023/06/03 09:42:45;;;;;;;6.70;2.63;;;;;;;26.84;35.64;100621.78;5583422;31;33987;-68
2023/06/03 09:45:51;;;;;;;4.45;2.80;;;;;;;27.78;33.60;100618.62;5586824;31;33704;-68
2023/06/03 09:49:10;;;;;;;5.65;2.67;;;;;;;28.35;33.17;100629.09;5587208;31;33692;-69
2023/06/03 09:52:30;;;;;;;4.57;2.75;;;;;;;27.32;34.22;100614.25;5585844;31;33761;-69
2023/06/03 09:55:38;;;;;;;7.40;2.80;;;;;;;26.95;34.65;100612.59;5583925;31;34370;-70
2023/06/03 09:58:47;;;;;;;6.55;2.72;;;;;;;28.88;31.61;100618.47;5587810;31;33744;-69
2023/06/03 10:01:56;;;;;;;4.87;2.72;;;;;;;28.04;32.70;100611.16;5579128;31;33946;-69
2023/06/03 10:05:01;;;;;;;7.82;2.60;;;;;;;28.68;31.87;100608.47;5586581;31;33893;-69
2023/06/03 10:08:07;;;;;;;7.40;2.53;;;;;;;30.61;28.76;100604.75;5586057;31;33597;-70
2023/06/03 10:11:14;;;;;;;5.57;2.55;;;;;;;27.51;33.09;100601.72;5586499;31;34319;-70
2023/06/03 10:14:27;;;;;;;4.15;2.45;;;;;;;30.46;30.08;100607.69;5585464;31;34061;-69
2023/06/03 10:17:33;;;;;;;4.30;2.60;;;;;;;31.48;27.91;100616.03;5584312;31;33879;-70
2023/06/03 10:20:42;;;;;;;4.28;2.47;;;;;;;30.50;28.64;100609.56;5576536;31;34011;-70
2023/06/03 10:23:57;;;;;;;7.82;3.00;;;;;;;28.02;31.60;100616.09;5585598;31;33701;-70
2023/06/03 10:27:04;;;;;;;8.52;2.70;;;;;;;27.30;32.37;100606.37;5587022;31;34108;-69
2023/06/03 10:30:14;;;;;;;6.45;2.75;;;;;;;26.06;35.16;100611.94;5586864;31;33850;-70
2023/06/03 10:33:20;;;;;;;9.63;2.72;;;;;;;27.66;33.56;100610.72;5587084;31;34746;-68
2023/06/03 10:36:25;;;;;;;8.65;2.65;;;;;;;28.59;31.41;100612.88;5586317;31;33857;-68
2023/06/03 10:39:32;;;;;;;9.98;2.92;;;;;;;27.43;33.59;100596.81;5586345;31;34028;-69
2023/06/03 10:42:40;;;;;;;6.12;2.67;;;;;;;26.80;33.81;100601.66;5587021;31;33965;-69
2023/06/03 10:45:52;;;;;;;6.80;3.28;;;;;;;26.58;34.76;100598.31;5585740;31;34376;-70
2023/06/03 10:49:01;;;;;;;7.22;2.67;;;;;;;28.91;32.17;100604.25;5586944;31;33965;-69
2023/06/03 10:52:49;;;;;;;9.48;2.83;;;;;;;28.66;31.63;100605.19;5586342;31;33575;-69
2023/06/03 10:56:23;;;;;;;6.20;3.08;;;;;;;28.02;32.81;100605.19;5585755;31;34147;-69
2023/06/03 10:59:37;;;;;;;6.12;3.03;;;;;;;27.82;33.27;100597.88;5580831;31;34626;-69
2023/06/03 11:03:06;;;;;;;7.70;3.05;;;;;;;26.82;34.62;100585.84;5576690;31;33788;-71
2023/06/03 11:06:21;;;;;;;5.93;2.75;;;;;;;25.76;36.08;100590.84;5574115;31;33947;-69
2023/06/03 11:09:34;;;;;;;4.28;3.00;;;;;;;25.47;36.96;100599.31;5577212;31;33957;-69
2023/06/03 11:12:48;;;;;;;4.18;2.97;;;;;;;25.81;36.97;100597.13;5574307;31;33900;-67
2023/06/03 11:16:03;;;;;;;5.82;2.80;;;;;;;26.22;36.33;100595.47;5580861;31;33783;-70
2023/06/03 11:19:31;;;;;;;7.70;3.15;;;;;;;24.76;38.49;100589.72;5577486;31;34153;-69
2023/06/03 11:22:39;;;;;;;4.60;3.00;;;;;;;28.53;34.54;100592.16;5576139;31;33860;-70
2023/06/03 11:25:44;;;;;;;6.35;3.05;;;;;;;30.63;29.41;100581.47;5577513;31;33804;-69
2023/06/03 11:28:53;;;;;;;6.95;3.20;;;;;;;26.64;34.14;100579.00;5570343;31;34126;-70
2023/06/03 11:32:13;;;;;;;6.55;3.03;;;;;;;26.58;34.58;100585.53;5570567;31;33935;-70
2023/06/03 11:35:26;;;;;;;11.73;2.78;;;;;;;27.99;33.19;100582.00;5585993;31;34012;-70
2023/06/03 11:38:58;;;;;;;6.47;3.00;;;;;;;27.23;33.82;100579.37;5577736;31;34057;-69
2023/06/03 11:42:08;;;;;;;7.03;3.00;;;;;;;28.67;31.82;100584.16;5585573;31;33972;-67
2023/06/03 11:45:19;;;;;;;4.55;3.10;;;;;;;26.35;34.39;100577.84;5568768;31;34279;-68
2023/06/03 11:48:37;;;;;;;6.62;2.70;;;;;;;25.19;36.97;100580.63;5568328;31;34002;-69
2023/06/03 11:51:42;;;;;;;8.93;2.70;;;;;;;27.51;32.72;100574.47;5566819;31;33827;-68
2023/06/03 11:54:50;;;;;;;6.72;2.60;;;;;;;27.71;32.66;100571.72;5566776;32;34076;-69
2023/06/03 11:58:08;;;;;;;7.62;2.58;;;;;;;27.33;32.28;100566.84;5568382;31;34248;-70
2023/06/03 12:01:17;;;;;;;6.75;2.55;;;;;;;26.93;33.03;100565.75;5584774;31;33573;-70
2023/06/03 12:04:23;;;;;;;9.88;2.53;;;;;;;27.46;31.54;100556.19;5577430;31;33723;-71
2023/06/03 12:07:32;;;;;;;5.18;2.17;;;;;;;28.45;30.73;100566.28;5567002;32;33796;-69
2023/06/03 12:10:42;;;;;;;;;;;;;;;28.18;29.86;100565.84;5566604;32;33774;-69
2023/06/03 12:13:49;;;;;;;7.70;2.10;;;;;;;31.27;25.91;100562.69;5566429;32;34753;-70
2023/06/03 12:17:07;;;;;;;6.13;2.20;;;;;;;34.40;22.50;100568.25;5566614;31;34719;-69
2023/06/03 12:20:27;;;;;;;6.75;2.30;;;;;;;31.79;24.22;100545.00;5566183;32;32424;-69
2023/06/03 12:23:34;;;;;;;11.00;2.45;;;;;;;32.18;24.86;100569.19;5565039;31;35567;-71
2023/06/03 12:26:41;;;;;;;3.67;2.40;;;;;;;33.80;22.49;100560.59;5584986;31;34637;-70
2023/06/03 12:29:55;;;;;;;3.35;2.30;;;;;;;33.15;23.50;100565.87;5585405;31;33981;-70
2023/06/03 12:33:02;;;;;;;3.47;2.15;;;;;;;35.47;20.60;100558.16;5585502;31;33898;-69
2023/06/03 12:36:09;;;;;;;4.65;2.25;;;;;;;33.48;22.62;100555.41;5585665;31;34004;-70
2023/06/03 12:39:17;;;;;;;5.50;2.30;;;;;;;33.05;21.99;100555.13;5585539;31;34532;-69
2023/06/03 12:42:36;;;;;;;;;;;;;;;36.10;20.40;100548.13;5585354;31;34869;-70
2023/06/03 12:45:42;;;;;;;6.68;1.90;;;;;;;34.91;21.33;100533.59;5584693;31;34142;-69
2023/06/03 12:48:52;;;;;;;4.05;1.65;;;;;;;33.31;22.41;100533.34;5585367;31;34464;-69
2023/06/03 12:52:13;;;;;;;6.75;2.12;;;;;;;32.99;22.07;100531.63;5569483;31;33875;-69
2023/06/03 12:55:27;;;;;;;2.70;1.70;;;;;;;30.12;25.34;100529.28;5565239;32;35020;-68
2023/06/03 12:58:32;;;;;;;7.22;1.98;;;;;;;32.38;23.16;100532.25;5569038;31;33985;-70
2023/06/03 13:01:44;;;;;;;4.75;1.90;;;;;;;32.45;22.75;100522.47;5582586;31;33552;-70
2023/06/03 13:04:51;;;;;;;6.12;2.10;;;;;;;33.26;21.96;100528.75;5585040;31;34852;-68
2023/06/03 13:07:58;;;;;;;5.60;2.00;;;;;;;32.02;22.93;100527.50;5584729;31;33594;-68
2023/06/03 13:11:04;;;;;;;4.72;2.20;;;;;;;31.01;24.40;100519.25;5582958;31;33947;-70
2023/06/03 13:14:09;;;;;;;8.80;2.45;;;;;;;32.61;22.61;100526.47;5586041;31;33609;-68
2023/06/03 13:17:15;;;;;;;4.32;2.12;;;;;;;32.42;22.63;100525.03;5584224;31;33866;-70
2023/06/03 13:20:21;;;;;;;5.12;2.00;;;;;;;32.63;22.51;100517.94;5583593;31;34025;-69
2023/06/03 13:23:29;;;;;;;3.35;1.87;;;;;;;33.18;22.20;100521.28;5567701;32;33960;-70
2023/06/03 13:26:36;;;;;;;;;;;;;;;32.39;22.87;100515.44;5577435;31;34519;-69
2023/06/03 13:29:41;;;;;;;4.80;1.98;;;;;;;35.27;20.49;100517.47;5587497;31;35438;-70
2023/06/03 13:32:49;;;;;;;6.97;2.05;;;;;;;34.33;20.92;100516.38;5587031;31;33773;-69
2023/06/03 13:35:55;;;;;;;7.68;1.92;;;;;;;32.99;22.67;100517.88;5582560;31;34794;-70
2023/06/03 13:39:01;;;;;;;4.95;2.28;;;;;;;32.45;22.45;100514.22;5587177;31;34866;-69
2023/06/03 13:42:08;;;;;;;4.55;1.98;;;;;;;32.70;22.25;100513.66;5587365;31;33613;-70
2023/06/03 13:45:14;;;;;;;6.87;2.20;;;;;;;33.57;21.60;100513.06;5586068;31;33645;-70
2023/06/03 13:48:20;;;;;;;4.75;2.05;;;;;;;34.03;21.25;100506.28;5587305;31;33923;-70
2023/06/03 13:51:26;;;;;;;4.72;2.20;;;;;;;32.04;22.63;100508.00;5587089;31;34720;-69
2023/06/03 13:54:32;;;;;;;6.55;2.15;;;;;;;31.40;23.48;100505.13;5586963;31;33754;-69
2023/06/03 13:57:41;;;;;;;5.00;2.00;;;;;;;33.43;21.45;100503.28;5580418;31;33977;-70
2023/06/03 14:00:48;;;;;;;7.35;2.00;;;;;;;33.59;21.45;100502.56;5566979;32;33203;-71
2023/06/03 14:03:56;;;;;;;4.70;2.17;;;;;;;32.90;21.86;100506.84;5566267;32;34559;-71
2023/06/03 14:07:01;;;;;;;5.45;2.35;;;;;;;35.09;19.86;100507.59;5567975;31;34005;-71
2023/06/03 14:10:10;;;;;;;3.67;2.10;;;;;;;32.34;22.23;100505.41;5586148;31;33607;-70
2023/06/03 14:13:16;;;;;;;8.00;2.60;;;;;;;32.66;21.75;100503.59;5586260;31;33829;-69
2023/06/03 14:16:26;;;;;;;4.72;2.47;;;;;;;30.21;24.03;100499.34;5586617;31;35348;-68
2023/06/03 14:19:33;;;;;;;4.65;2.08;;;;;;;29.60;24.58;100493.81;5585773;31;34008;-70
2023/06/03 14:22:40;;;;;;;5.57;2.50;;;;;;;29.52;24.61;100491.72;5586899;31;33738;-69
2023/06/03 14:25:46;;;;;;;6.95;2.30;;;;;;;25.72;29.25;100486.47;5585192;31;34466;-70
2023/06/03 14:28:53;;;;;;;4.30;2.40;;;;;;;25.45;29.84;100484.69;5585742;31;33947;-68
2023/06/03 14:31:59;;;;;;;4.85;2.58;;;;;;;25.15;30.96;100472.81;5585040;31;35028;-69
2023/06/03 14:35:08;;;;;;;6.55;2.53;;;;;;;28.01;27.46;100476.19;5566174;32;33558;-69
2023/06/03 14:38:13;;;;;;;4.37;2.03;;;;;;;30.18;25.31;100472.56;5567099;31;34072;-69